Star City, Canada
Current Conditions -  °F | °C
As of 9:00 AM on Thursday 23 Oct 2014 (Local Time) from CYBU Reporting Station
Overcast Overcast  
Wind Chill: 44°   Ceiling: 1300
Heat Index: 46°   Visibility: 9mi
Dew Point: 45°   Wind: 5mph
Humidity: 93%   Direction: 110°ESE
Pressure: 29.71"   Gusts: NA
Location:  52.87°N, 104.33°W
Report Text: CYBU 231500Z AUTO 11004KT 9SM OVC013 08/07 A2971 RMK SLP072
Loading
Personal Weather Stations






























Interactive Weather Map
Tropical Storm Tracking
New forecast layout! Learn more

10-Day Weather Forecast

Advertisements
Track Severe Weather on mobile